Terminal Aerodrome Forecast
Issued by NWS

Home | Current Version | Previous Version | Text Only | Print | Product List | Glossary Off
Versions: 1 2 3 4 5 6 7 8 9 10 11 12 13 14 15 16 17

000
FTUS43 KOAX 202300
TAFCDR
TAF
KCDR 202321Z 2100/2124 07005KT P6SM BKN250
     FM210300 23006KT P6SM SCT250
     FM211600 28012KT P6SM SKC=

USA.gov is the U.S. government's official web portal to all federal, state and local government web resources and services.